createdAt,value
2022-08-06T00:02:08.473Z,1005.35
2022-08-06T00:07:08.777Z,1005.45
2022-08-06T00:12:10.826Z,1005.46
2022-08-06T00:17:08.215Z,1005.40
2022-08-06T00:22:08.160Z,1005.44
2022-08-06T00:27:12.225Z,1005.45
2022-08-06T00:32:21.517Z,1005.56
2022-08-06T00:37:18.822Z,1005.48
2022-08-06T00:42:07.872Z,1005.49
2022-08-06T00:47:11.844Z,1005.55
2022-08-06T00:52:08.769Z,1005.45
2022-08-06T00:57:10.623Z,1005.46
2022-08-06T01:02:09.975Z,1005.51
2022-08-06T01:07:09.099Z,1005.63
2022-08-06T01:12:08.601Z,1005.66
2022-08-06T01:17:18.834Z,1005.70
2022-08-06T01:22:31.368Z,1005.73
2022-08-06T01:27:08.298Z,1005.82
2022-08-06T01:32:07.239Z,1005.88
2022-08-06T01:37:07.147Z,1005.95
2022-08-06T01:42:07.093Z,1005.87
2022-08-06T01:47:15.644Z,1006.08
2022-08-06T01:52:14.899Z,1006.11
2022-08-06T01:57:07.813Z,1006.12
2022-08-06T02:02:07.082Z,1006.10
2022-08-06T02:07:06.790Z,1006.21
2022-08-06T02:12:07.751Z,1006.24
2022-08-06T02:17:13.894Z,1006.29
2022-08-06T02:22:06.587Z,1006.42
2022-08-06T02:27:06.526Z,1006.52
2022-08-06T02:32:06.451Z,1006.60
2022-08-06T02:37:06.378Z,1006.62
2022-08-06T02:42:06.319Z,1006.70
2022-08-06T02:47:06.247Z,1006.70
2022-08-06T02:52:18.015Z,1006.84
2022-08-06T02:57:07.143Z,1006.87
2022-08-06T03:02:06.134Z,1006.79
2022-08-06T03:07:06.684Z,1006.87
2022-08-06T03:12:29.253Z,1007.05
2022-08-06T03:17:06.887Z,1007.01
2022-08-06T03:22:05.802Z,1007.11
2022-08-06T03:27:05.731Z,1007.17
2022-08-06T03:32:24.739Z,1007.15
2022-08-06T03:37:08.205Z,1007.15
2022-08-06T03:42:07.934Z,1007.16
2022-08-06T03:47:05.466Z,1007.32
2022-08-06T03:52:05.407Z,1007.54
2022-08-06T03:57:07.846Z,1007.52
2022-08-06T04:02:05.287Z,1007.57
2022-08-06T04:07:05.200Z,1007.58
2022-08-06T04:12:36.869Z,1007.62
2022-08-06T04:17:06.109Z,1007.62
2022-08-06T04:23:00.037Z,1007.73
2022-08-06T04:27:09.548Z,1007.85
2022-08-06T04:32:18.922Z,1007.97
2022-08-06T04:37:05.833Z,1008.07
2022-08-06T04:42:05.937Z,1008.19
2022-08-06T04:47:04.705Z,1008.18
2022-08-06T04:52:35.928Z,1008.23
2022-08-06T04:57:21.566Z,1008.26
2022-08-06T05:02:07.755Z,1008.30
2022-08-06T05:07:04.928Z,1008.28
2022-08-06T05:12:04.588Z,1008.29
2022-08-06T05:17:04.299Z,1008.51
2022-08-06T05:22:11.300Z,1008.57
2022-08-06T05:27:04.166Z,1008.63
2022-08-06T05:32:04.107Z,1008.67
2022-08-06T05:37:04.039Z,1008.64
2022-08-06T05:42:03.965Z,1008.68
2022-08-06T05:47:03.894Z,1008.74
2022-08-06T05:52:03.837Z,1008.78
2022-08-06T05:57:04.590Z,1008.88
2022-08-06T06:02:03.707Z,1008.93
2022-08-06T06:07:04.845Z,1008.94
2022-08-06T06:12:03.622Z,1008.93
2022-08-06T06:17:03.504Z,1008.89
2022-08-06T06:22:03.450Z,1008.85
2022-08-06T06:27:03.387Z,1008.85
2022-08-06T06:32:07.901Z,1008.86
2022-08-06T06:37:04.272Z,1008.92
2022-08-06T06:42:03.189Z,1008.92
2022-08-06T06:47:03.123Z,1008.84
2022-08-06T06:52:08.982Z,1008.88
2022-08-06T06:57:02.987Z,1008.93
2022-08-06T07:02:11.432Z,1008.96
2022-08-06T07:07:09.214Z,1009.01
2022-08-06T07:12:04.202Z,1009.02
2022-08-06T07:17:43.689Z,1009.00
2022-08-06T07:22:03.707Z,1008.96
2022-08-06T07:27:03.430Z,1008.98
2022-08-06T07:32:02.551Z,1009.02
2022-08-06T07:37:02.468Z,1009.04
2022-08-06T07:42:10.913Z,1009.02
2022-08-06T07:47:23.881Z,1009.13
2022-08-06T07:52:03.324Z,1009.16
2022-08-06T07:57:02.874Z,1009.16
2022-08-06T08:02:02.275Z,1009.18
2022-08-06T08:07:02.084Z,1009.08
2022-08-06T08:12:25.686Z,1009.17
2022-08-06T08:17:02.981Z,1009.18
2022-08-06T08:22:01.902Z,1009.24
2022-08-06T08:27:05.151Z,1009.23
2022-08-06T08:32:05.263Z,1009.22
2022-08-06T08:37:02.725Z,1009.27
2022-08-06T08:42:02.670Z,1009.26
2022-08-06T08:47:01.573Z,1009.27
2022-08-06T08:52:01.514Z,1009.29
2022-08-06T08:57:06.465Z,1009.25
2022-08-06T09:02:02.483Z,1009.26
2022-08-06T09:07:01.319Z,1009.29
2022-08-06T09:12:03.713Z,1009.22
2022-08-06T09:17:02.237Z,1009.29
2022-08-06T09:22:01.440Z,1009.29
2022-08-06T09:27:45.161Z,1009.25
2022-08-06T09:32:02.054Z,1009.22
2022-08-06T09:37:05.082Z,1009.20
2022-08-06T09:42:00.874Z,1009.19
2022-08-06T09:47:00.803Z,1009.17
2022-08-06T09:52:00.754Z,1009.19
2022-08-06T09:57:00.672Z,1009.17
2022-08-06T10:02:00.924Z,1009.29
2022-08-06T10:07:00.534Z,1009.24
2022-08-06T10:12:00.476Z,1009.35
2022-08-06T10:17:00.403Z,1009.31
2022-08-06T10:22:00.350Z,1009.34
2022-08-06T10:27:00.278Z,1009.28
2022-08-06T10:32:00.221Z,1009.31
2022-08-06T10:37:00.163Z,1009.25
2022-08-06T10:42:03.868Z,1009.23
2022-08-06T10:47:00.029Z,1009.17
2022-08-06T10:51:59.972Z,1009.17
2022-08-06T10:57:01.478Z,1009.18
2022-08-06T11:01:59.875Z,1009.10
2022-08-06T11:06:59.795Z,1009.14
2022-08-06T11:12:05.621Z,1008.98
2022-08-06T11:16:59.663Z,1008.90
2022-08-06T11:22:03.047Z,1008.98
2022-08-06T11:27:02.025Z,1008.97
2022-08-06T11:32:00.493Z,1008.90
2022-08-06T11:37:10.806Z,1008.85
2022-08-06T11:42:00.367Z,1008.88
2022-08-06T11:46:59.266Z,1008.86
2022-08-06T11:52:04.198Z,1008.84
2022-08-06T11:56:59.122Z,1008.81
2022-08-06T12:01:59.153Z,1008.89
2022-08-06T12:06:58.985Z,1008.93
2022-08-06T12:11:58.925Z,1008.89
2022-08-06T12:17:02.640Z,1008.86
2022-08-06T12:21:58.845Z,1008.81
2022-08-06T12:26:58.727Z,1008.81
2022-08-06T12:31:58.670Z,1008.74
2022-08-06T12:36:58.582Z,1008.66
2022-08-06T12:41:58.521Z,1008.55
2022-08-06T12:46:58.459Z,1008.56
2022-08-06T12:51:58.410Z,1008.52
2022-08-06T12:56:58.317Z,1008.53
2022-08-06T13:02:10.656Z,1008.46
2022-08-06T13:06:59.219Z,1008.50
2022-08-06T13:11:58.131Z,1008.61
2022-08-06T13:16:58.054Z,1008.50
2022-08-06T13:21:58.355Z,1008.52
2022-08-06T13:26:57.937Z,1008.51
2022-08-06T13:32:00.465Z,1008.55
2022-08-06T13:36:57.793Z,1008.55
2022-08-06T13:42:02.511Z,1008.52
2022-08-06T13:46:58.694Z,1008.46
2022-08-06T13:51:58.638Z,1008.42
2022-08-06T13:56:57.555Z,1008.34
2022-08-06T14:01:57.506Z,1008.36
2022-08-06T14:06:58.765Z,1008.34
2022-08-06T14:11:58.498Z,1008.34
2022-08-06T14:16:57.314Z,1008.41
2022-08-06T14:21:57.257Z,1008.31
2022-08-06T14:26:57.165Z,1008.30
2022-08-06T14:31:58.148Z,1008.25
2022-08-06T14:36:57.037Z,1008.29
2022-08-06T14:41:56.991Z,1008.20
2022-08-06T14:46:59.700Z,1008.14
2022-08-06T14:52:23.493Z,1008.11
2022-08-06T14:56:57.813Z,1008.13
2022-08-06T15:01:56.788Z,1008.10
2022-08-06T15:06:58.613Z,1008.07
2022-08-06T15:12:00.151Z,1008.04
2022-08-06T15:17:01.500Z,1008.03
2022-08-06T15:21:57.825Z,1008.01
2022-08-06T15:26:56.404Z,1008.01
2022-08-06T15:32:02.273Z,1008.04
2022-08-06T15:37:02.042Z,1008.02
2022-08-06T15:41:56.212Z,1007.99
2022-08-06T15:46:56.135Z,1007.93
2022-08-06T15:52:01.335Z,1007.93
2022-08-06T15:56:55.997Z,1007.94
2022-08-06T16:02:05.335Z,1007.94
2022-08-06T16:06:55.864Z,1007.95
2022-08-06T16:11:55.805Z,1007.92
2022-08-06T16:16:55.734Z,1007.91
2022-08-06T16:21:55.677Z,1007.91
2022-08-06T16:26:58.067Z,1007.85
2022-08-06T16:31:55.570Z,1007.86
2022-08-06T16:36:55.482Z,1007.86
2022-08-06T16:41:58.768Z,1007.84
2022-08-06T16:46:55.361Z,1007.92
2022-08-06T16:52:44.557Z,1007.88
2022-08-06T16:56:56.242Z,1007.89
2022-08-06T17:02:13.354Z,1007.89
2022-08-06T17:06:56.114Z,1007.94
2022-08-06T17:11:58.334Z,1007.92
2022-08-06T17:16:54.971Z,1007.92
2022-08-06T17:21:59.201Z,1007.91
2022-08-06T17:26:54.826Z,1007.92
2022-08-06T17:31:57.499Z,1007.94
2022-08-06T17:36:54.713Z,1008.00
2022-08-06T17:41:54.622Z,1008.03
2022-08-06T17:46:54.563Z,1008.04
2022-08-06T17:51:54.493Z,1008.10
2022-08-06T17:56:54.443Z,1008.14
2022-08-06T18:01:54.361Z,1008.14
2022-08-06T18:06:54.341Z,1008.18
2022-08-06T18:11:54.243Z,1008.19
2022-08-06T18:16:54.178Z,1008.23
2022-08-06T18:21:54.101Z,1008.27
2022-08-06T18:26:54.041Z,1008.33
2022-08-06T18:31:59.812Z,1008.28
2022-08-06T18:36:53.923Z,1008.32
2022-08-06T18:41:57.682Z,1008.34
2022-08-06T18:46:55.498Z,1008.37
2022-08-06T18:51:54.166Z,1008.47
2022-08-06T18:56:54.676Z,1008.45
2022-08-06T19:01:53.639Z,1008.50
2022-08-06T19:06:53.526Z,1008.52
2022-08-06T19:11:53.463Z,1008.51
2022-08-06T19:16:53.413Z,1008.54
2022-08-06T19:21:53.325Z,1008.54
2022-08-06T19:26:53.271Z,1008.58
2022-08-06T19:31:53.203Z,1008.58
2022-08-06T19:36:53.137Z,1008.57
2022-08-06T19:42:00.353Z,1008.65
2022-08-06T19:46:56.610Z,1008.59
2022-08-06T19:52:02.416Z,1008.62
2022-08-06T19:56:53.907Z,1008.70
2022-08-06T20:02:08.242Z,1008.67
2022-08-06T20:07:00.891Z,1008.73
2022-08-06T20:12:03.984Z,1008.79
2022-08-06T20:16:53.663Z,1008.83
2022-08-06T20:21:52.525Z,1008.84
2022-08-06T20:27:01.007Z,1008.93
2022-08-06T20:31:55.450Z,1008.92
2022-08-06T20:36:52.346Z,1009.01
2022-08-06T20:42:02.182Z,1008.97
2022-08-06T20:47:44.396Z,1008.96
2022-08-06T20:51:53.176Z,1008.96
2022-08-06T20:56:52.090Z,1008.96
2022-08-06T21:01:52.017Z,1008.95
2022-08-06T21:06:53.025Z,1008.91
2022-08-06T21:11:51.900Z,1008.91
2022-08-06T21:16:55.494Z,1008.88
2022-08-06T21:21:51.758Z,1008.89
2022-08-06T21:26:51.892Z,1008.88
2022-08-06T21:31:52.589Z,1008.92
2022-08-06T21:36:51.575Z,1008.97
2022-08-06T21:41:58.385Z,1008.89
2022-08-06T21:46:58.580Z,1008.86
2022-08-06T21:51:51.359Z,1008.84
2022-08-06T21:56:51.312Z,1008.87
2022-08-06T22:02:09.842Z,1008.89
2022-08-06T22:06:53.249Z,1008.94
2022-08-06T22:12:39.594Z,1008.91
2022-08-06T22:16:54.324Z,1008.94
2022-08-06T22:21:51.679Z,1008.99
2022-08-06T22:26:56.279Z,1008.97
2022-08-06T22:31:55.924Z,1008.97
2022-08-06T22:36:51.648Z,1009.00
2022-08-06T22:42:06.262Z,1008.94
2022-08-06T22:46:51.674Z,1008.93
2022-08-06T22:51:51.643Z,1008.97
2022-08-06T22:57:04.692Z,1008.93
2022-08-06T23:02:06.958Z,1008.94
2022-08-06T23:06:51.652Z,1008.93
2022-08-06T23:11:59.198Z,1008.98
2022-08-06T23:16:50.257Z,1008.93
2022-08-06T23:22:02.169Z,1008.89
2022-08-06T23:26:51.155Z,1008.93
2022-08-06T23:31:50.040Z,1008.91
2022-08-06T23:36:54.543Z,1008.86
2022-08-06T23:42:01.288Z,1008.86
2022-08-06T23:46:57.075Z,1008.86
2022-08-06T23:52:04.123Z,1008.83
2022-08-06T23:56:52.888Z,1008.81
